Time;durP1;ratioP1;P1;durP2;ratioP2;P2;SDS_P1;SDS_P2;PMS_P1;PMS_P2;Temp;Humidity;BMP_temperature;BMP_pressure;BME280_temperature;BME280_humidity;BME280_pressure;Samples;Min_cycle;Max_cycle;Signal;HPM_P1;HPM_P2
2022/06/12 00:00:56;;;;;;;;;;;;;;;18.16;56.98;98585.50;5061623;28;19924;-56
2022/06/12 00:03:45;;;;;;;;;;;;;;;18.29;56.76;98584.38;5060338;28;20033;-56
2022/06/12 00:06:35;;;;;;;;;;;;;;;18.49;55.95;98583.44;5057244;28;19932;-54
2022/06/12 00:09:23;;;;;;;;;;;;;;;18.23;56.38;98578.31;5053440;28;20072;-54
2022/06/12 00:12:12;;;;;;;;;;;;;;;17.92;57.52;98578.88;5055772;28;20279;-55
2022/06/12 00:15:00;;;;;;;;;;;;;;;18.26;56.39;98583.09;5059118;28;20426;-57
2022/06/12 00:17:49;;;;;;;;;;;;;;;17.97;57.15;98572.38;5052881;28;20070;-57
2022/06/12 00:20:40;;;;;;;;;;;;;;;17.92;57.40;98570.63;5060102;28;19920;-57
2022/06/12 00:23:30;;;;;;;;;;;;;;;17.83;57.54;98564.44;5057577;28;20397;-56
2022/06/12 00:26:20;;;;;;;;;;;;;;;17.85;57.69;98566.88;5060592;28;20373;-55
2022/06/12 00:29:34;;;;;;;;;;;;;;;17.72;57.91;98569.59;5053604;28;19928;-54
2022/06/12 00:32:24;;;;;;;;;;;;;;;17.63;58.31;98560.63;5058930;28;20008;-56
2022/06/12 00:35:12;;;;;;;;;;;;;;;17.78;57.45;98562.72;5059228;28;20388;-57
2022/06/12 00:38:02;;;;;;;;;;;;;;;17.64;57.91;98567.72;5059443;28;20103;-55
2022/06/12 00:41:16;;;;;;;;;;;;;;;17.51;58.10;98566.91;5060441;28;20055;-57
2022/06/12 00:44:06;;;;;;;;;;;;;;;17.60;58.01;98558.56;5052094;28;19924;-57
2022/06/12 00:46:55;;;;;;;;;;;;;;;17.53;58.05;98564.63;5053381;28;19927;-57
2022/06/12 00:49:45;;;;;;;;;;;;;;;17.55;58.33;98562.34;5060681;28;19921;-55
2022/06/12 00:52:34;;;;;;;;;;;;;;;17.44;58.41;98560.38;5066916;28;19924;-56
2022/06/12 00:55:24;;;;;;;;;;;;;;;17.37;58.49;98557.41;5059558;28;19920;-52
2022/06/12 00:58:13;;;;;;;;;;;;;;;17.47;58.21;98562.41;5062619;28;19930;-55
2022/06/12 01:01:04;;;;;;;;;;;;;;;17.28;58.39;98562.97;5062362;28;19928;-57
2022/06/12 01:07:01;;;;;;;;;;;;;;;17.25;58.79;98553.44;5064605;28;19932;-56
2022/06/12 01:09:50;;;;;;;;;;;;;;;17.26;58.50;98554.28;5062488;28;19979;-56
2022/06/12 01:12:43;;;;;;;;;;;;;;;17.04;59.02;98547.22;5056735;28;19943;-55
2022/06/12 01:15:32;;;;;;;;;;;;;;;16.92;59.30;98555.41;5062921;28;19932;-57
2022/06/12 01:18:46;;;;;;;;;;;;;;;16.82;59.55;98555.81;5054022;28;19925;-56
2022/06/12 01:21:55;;;;;;;;;;;;;;;17.03;59.18;98546.41;5059745;28;20380;-57
2022/06/12 01:25:04;;;;;;;;;;;;;;;17.06;58.78;98546.91;5034440;28;19982;-57
2022/06/12 01:28:00;;;;;;;;;;;;;;;16.97;59.20;98552.47;5044035;28;19927;-51
2022/06/12 01:34:14;;;;;;;;;;;;;;;17.08;58.69;98553.63;5055945;28;19924;-55
2022/06/12 01:37:08;;;;;;;;;;;;;;;17.19;58.12;98556.75;5057404;28;19929;-55
2022/06/12 01:40:00;;;;;;;;;;;;;;;17.12;58.62;98548.28;5055230;28;19982;-55
2022/06/12 01:42:50;;;;;;;;;;;;;;;16.92;59.22;98547.97;5056263;28;19924;-56
2022/06/12 01:45:40;;;;;;;;;;;;;;;16.94;58.92;98547.66;5079951;28;19962;-55
2022/06/12 01:48:54;;;;;;;;;;;;;;;17.19;58.05;98548.53;5079412;28;20057;-55
2022/06/12 01:52:07;;;;;;;;;;;;;;;16.95;58.81;98547.31;5079180;28;20344;-54
2022/06/12 01:55:06;;;;;;;;;;;;;;;16.94;59.03;98547.66;5082159;28;20354;-55
2022/06/12 01:57:57;;;;;;;;;;;;;;;16.68;59.85;98548.66;5080883;28;20407;-54
2022/06/12 02:00:46;;;;;;;;;;;;;;;16.68;59.79;98545.91;5082167;28;20336;-54
2022/06/12 02:04:01;;;;;;;;;;;;;;;16.80;59.40;98541.66;5072732;28;19951;-53
2022/06/12 02:06:52;;;;;;;;;;;;;;;16.66;59.68;98539.94;5075401;28;19925;-55
2022/06/12 02:09:43;;;;;;;;;;;;;;;16.77;59.28;98543.09;5070754;28;20388;-56
2022/06/12 02:15:42;;;;;;;;;;;;;;;16.81;59.09;98540.50;5078604;28;20295;-55
2022/06/12 02:18:36;;;;;;;;;;;;;;;16.75;59.06;98540.72;5069759;28;20021;-56
2022/06/12 02:21:25;;;;;;;;;;;;;;;16.57;59.77;98541.19;5066625;28;20340;-54
2022/06/12 02:24:15;;;;;;;;;;;;;;;16.61;59.50;98542.09;5071958;28;20280;-58
2022/06/12 02:27:04;;;;;;;;;;;;;;;16.54;59.94;98544.56;5077140;28;19924;-58
2022/06/12 02:29:56;;;;;;;;;;;;;;;16.36;60.31;98539.22;5077730;28;19932;-54
2022/06/12 02:32:45;;;;;;;;;;;;;;;16.31;60.53;98542.16;5069457;28;19949;-57
2022/06/12 02:35:39;;;;;;;;;;;;;;;16.25;60.52;98535.28;5068566;28;19920;-58
2022/06/12 02:41:44;;;;;;;;;;;;;;;16.26;60.58;98533.34;5081386;28;19924;-56
2022/06/12 02:44:38;;;;;;;;;;;;;;;16.12;60.56;98545.34;5064577;28;19931;-55
2022/06/12 02:47:29;;;;;;;;;;;;;;;15.96;61.19;98547.06;5083444;28;19924;-56
2022/06/12 02:50:21;;;;;;;;;;;;;;;15.97;61.41;98548.66;5088338;28;19927;-54
2022/06/12 02:53:18;;;;;;;;;;;;;;;16.24;60.34;98550.94;5092407;28;19920;-55
2022/06/12 02:56:17;;;;;;;;;;;;;;;16.20;60.38;98541.75;5100511;28;19923;-54
2022/06/12 02:59:08;;;;;;;;;;;;;;;16.30;59.78;98550.72;5085833;28;20000;-50
2022/06/12 03:02:05;;;;;;;;;;;;;;;16.05;60.77;98544.28;5088385;28;19924;-54
2022/06/12 03:04:57;;;;;;;;;;;;;;;16.09;60.62;98545.22;5087793;28;20271;-53
2022/06/12 03:07:45;;;;;;;;;;;;;;;16.35;59.93;98542.28;5100622;28;20364;-54
2022/06/12 03:10:34;;;;;;;;;;;;;;;16.31;59.72;98541.38;5089142;28;20288;-53
2022/06/12 03:13:25;;;;;;;;;;;;;;;16.11;60.49;98540.22;5087290;28;19928;-50
2022/06/12 03:16:41;;;;;;;;;;;;;;;16.04;60.51;98539.94;5089466;28;19920;-55
2022/06/12 03:19:30;;;;;;;;;;;;;;;15.87;61.12;98549.88;5095376;28;19924;-55
2022/06/12 03:22:22;;;;;;;;;;;;;;;15.92;60.95;98546.91;5090522;28;19924;-53
2022/06/12 03:25:12;;;;;;;;;;;;;;;16.02;60.73;98548.47;5088203;28;19920;-56
2022/06/12 03:28:03;;;;;;;;;;;;;;;16.13;60.07;98546.94;5092799;28;19920;-55
2022/06/12 03:30:53;;;;;;;;;;;;;;;16.11;60.24;98543.75;5087779;28;19920;-56
2022/06/12 03:33:44;;;;;;;;;;;;;;;16.03;60.50;98552.81;5093573;28;20395;-54
2022/06/12 03:36:33;;;;;;;;;;;;;;;16.00;60.45;98549.94;5099847;28;19927;-55
2022/06/12 03:39:24;;;;;;;;;;;;;;;15.97;60.58;98543.19;5084336;28;20061;-53
2022/06/12 03:42:18;;;;;;;;;;;;;;;16.02;60.16;98548.47;5081423;28;20623;-55
2022/06/12 03:45:07;;;;;;;;;;;;;;;16.38;59.14;98547.91;5092079;28;19931;-54
2022/06/12 03:47:56;;;;;;;;;;;;;;;15.95;60.36;98550.94;5086007;28;19924;-55
2022/06/12 03:50:45;;;;;;;;;;;;;;;15.90;60.86;98548.38;5086675;28;19924;-55
2022/06/12 03:53:38;;;;;;;;;;;;;;;16.01;60.32;98549.59;5088916;28;19920;-55
2022/06/12 03:59:38;;;;;;;;;;;;;;;16.00;60.16;98550.75;5099850;28;20033;-54
2022/06/12 04:02:26;;;;;;;;;;;;;;;15.86;60.69;98541.94;5097189;28;20228;-55
2022/06/12 04:05:19;;;;;;;;;;;;;;;15.85;60.76;98554.84;5097623;28;19977;-55
2022/06/12 04:08:11;;;;;;;;;;;;;;;15.91;60.50;98550.78;5099749;28;19931;-54
2022/06/12 04:14:41;;;;;;;;;;;;;;;16.07;60.18;98548.28;5095547;28;19928;-55
2022/06/12 04:17:30;;;;;;;;;;;;;;;16.00;60.06;98558.16;5093103;28;19924;-54
2022/06/12 04:20:20;;;;;;;;;;;;;;;16.03;60.10;98560.22;5096110;28;19930;-56
2022/06/12 04:23:10;;;;;;;;;;;;;;;16.09;60.35;98557.00;5079871;28;19975;-55
2022/06/12 04:29:20;;;;;;;;;;;;;;;16.18;59.60;98554.97;5096393;28;19924;-55
2022/06/12 04:32:10;;;;;;;;;;;;;;;16.10;59.97;98553.09;5097228;28;20253;-54
2022/06/12 04:34:59;;;;;;;;;;;;;;;16.21;59.83;98554.31;5087685;28;19920;-56
2022/06/12 04:37:52;;;;;;;;;;;;;;;16.44;59.23;98552.06;5093585;28;20020;-54
2022/06/12 04:40:40;;;;;;;;;;;;;;;16.39;59.53;98556.94;5083011;28;19924;-55
2022/06/12 04:43:29;;;;;;;;;;;;;;;16.47;59.08;98556.88;5089746;28;19994;-56
2022/06/12 04:46:43;;;;;;;;;;;;;;;16.46;59.33;98559.97;5099418;28;19919;-58
2022/06/12 04:49:33;;;;;;;;;;;;;;;16.42;59.44;98559.03;5093699;28;20050;-56
2022/06/12 04:52:22;;;;;;;;;;;;;;;16.62;58.86;98558.22;5090107;28;20414;-56
2022/06/12 04:55:11;;;;;;;;;;;;;;;16.38;59.93;98560.81;5098246;28;20292;-54
2022/06/12 04:57:59;;;;;;;;;;;;;;;16.58;59.73;98551.81;5096396;28;19951;-56
2022/06/12 05:00:48;;;;;;;;;;;;;;;16.69;59.02;98550.25;5085020;28;19924;-54
2022/06/12 05:06:50;;;;;;;;;;;;;;;17.13;57.89;98549.88;5089449;28;19927;-55
2022/06/12 05:09:39;;;;;;;;;;;;;;;17.19;57.56;98549.31;5090753;28;20328;-56
2022/06/12 05:12:28;;;;;;;;;;;;;;;16.71;59.27;98553.47;5089337;28;20071;-59
2022/06/12 05:15:17;;;;;;;;;;;;;;;16.87;58.84;98553.66;5089856;28;19928;-54
2022/06/12 05:21:18;;;;;;;;;;;;;;;17.11;58.42;98552.97;5097543;28;19923;-54
2022/06/12 05:24:09;;;;;;;;;;;;;;;17.17;58.35;98550.81;5083618;28;19920;-55
2022/06/12 05:26:57;;;;;;;;;;;;;;;17.21;57.87;98544.31;5088363;28;19946;-56
2022/06/12 05:29:46;;;;;;;;;;;;;;;17.27;58.24;98544.88;5101048;28;19969;-55
2022/06/12 05:32:34;;;;;;;;;;;;;;;17.39;57.52;98544.09;5101610;28;19919;-56
2022/06/12 05:35:23;;;;;;;;;;;;;;;17.34;58.34;98538.84;5098560;28;19943;-51
2022/06/12 05:38:12;;;;;;;;;;;;;;;17.47;58.05;98549.50;5085466;28;19932;-54
2022/06/12 05:41:03;;;;;;;;;;;;;;;17.26;59.06;98544.09;5091661;28;20392;-55
2022/06/12 05:44:15;;;;;;;;;;;;;;;17.78;57.70;98542.69;5052202;28;20020;-54
2022/06/12 05:47:06;;;;;;;;;;;;;;;17.87;57.36;98551.63;5046090;28;21270;-55
2022/06/12 05:49:55;;;;;;;;;;;;;;;17.74;57.48;98552.78;5058070;28;19936;-56
2022/06/12 05:52:43;;;;;;;;;;;;;;;17.80;57.52;98548.66;5047323;28;19920;-54
2022/06/12 05:55:32;;;;;;;;;;;;;;;18.09;56.98;98546.81;5060024;28;19976;-55
2022/06/12 05:58:23;;;;;;;;;;;;;;;18.25;56.24;98551.25;5060202;28;20233;-56
2022/06/12 06:01:19;;;;;;;;;;;;;;;18.33;56.28;98547.56;5049277;28;19929;-56
2022/06/12 06:07:20;;;;;;;;;;;;;;;18.61;55.59;98535.81;5053807;28;19932;-55
2022/06/12 06:10:10;;;;;;;;;;;;;;;18.43;55.96;98554.56;5059225;28;19920;-55
2022/06/12 06:12:58;;;;;;;;;;;;;;;18.48;55.78;98547.97;5058507;28;20386;-55
2022/06/12 06:15:50;;;;;;;;;;;;;;;18.62;55.55;98548.41;5048387;28;20017;-56
2022/06/12 06:18:40;;;;;;;;;;;;;;;18.73;55.20;98540.50;5056968;28;19920;-54
2022/06/12 06:21:28;;;;;;;;;;;;;;;18.81;54.63;98540.34;5050021;28;19924;-57
2022/06/12 06:24:17;;;;;;;;;;;;;;;18.92;54.34;98539.84;5051375;28;19924;-56
2022/06/12 06:27:06;;;;;;;;;;;;;;;19.24;53.75;98541.53;5042679;28;20259;-51
2022/06/12 06:29:54;;;;;;;;;;;;;;;19.24;53.91;98541.53;5043141;28;19920;-54
2022/06/12 06:32:44;;;;;;;;;;;;;;;19.25;53.63;98545.88;5057300;28;19925;-53
2022/06/12 06:35:33;;;;;;;;;;;;;;;19.40;53.80;98547.06;5052551;28;19935;-54
2022/06/12 06:38:22;;;;;;;;;;;;;;;19.71;53.71;98543.56;5050781;28;20252;-55
2022/06/12 06:41:19;;;;;;;;;;;;;;;19.55;52.94;98543.53;5060335;28;19929;-55
2022/06/12 06:47:14;;;;;;;;;;;;;;;20.00;52.14;98538.72;5093979;28;19919;-57
2022/06/12 06:50:05;;;;;;;;;;;;;;;20.14;51.64;98541.81;5089547;28;19931;-57
2022/06/12 06:52:53;;;;;;;;;;;;;;;20.32;52.04;98545.75;5100948;28;19924;-53
2022/06/12 06:55:42;;;;;;;;;;;;;;;20.55;51.69;98543.13;5099170;28;19927;-56
2022/06/12 06:58:31;;;;;;;;;;;;;;;20.57;51.22;98545.53;5095595;28;20394;-56
2022/06/12 07:01:20;;;;;;;;;;;;;;;20.89;49.70;98538.72;5090958;28;20123;-56
2022/06/12 07:07:22;;;;;;;;;;;;;;;20.92;49.92;98528.88;5096517;28;19938;-56
2022/06/12 07:10:12;;;;;;;;;;;;;;;21.45;48.00;98534.63;5093720;28;19919;-56
2022/06/12 07:13:01;;;;;;;;;;;;;;;21.18;48.83;98542.03;5099414;28;20307;-54
2022/06/12 07:15:49;;;;;;;;;;;;;;;21.19;49.42;98532.56;5100569;28;20014;-55
2022/06/12 07:18:39;;;;;;;;;;;;;;;21.26;49.08;98537.44;5095323;28;19928;-57
2022/06/12 07:21:28;;;;;;;;;;;;;;;21.37;48.88;98528.19;5094936;28;19979;-56
2022/06/12 07:24:18;;;;;;;;;;;;;;;21.45;48.59;98538.19;5088623;28;20364;-56
2022/06/12 07:27:07;;;;;;;;;;;;;;;21.54;48.72;98531.66;5091963;28;19932;-56
2022/06/12 07:29:56;;;;;;;;;;;;;;;21.63;48.72;98532.19;5084671;28;19935;-56
2022/06/12 07:32:44;;;;;;;;;;;;;;;21.73;48.62;98533.53;5089738;28;19926;-55
2022/06/12 07:35:33;;;;;;;;;;;;;;;21.83;48.09;98533.69;5096682;28;19931;-56
2022/06/12 07:38:23;;;;;;;;;;;;;;;21.93;47.69;98535.03;5099756;28;19920;-56
2022/06/12 07:41:20;;;;;;;;;;;;;;;21.97;46.67;98533.13;5086867;28;21270;-56
2022/06/12 07:44:35;;;;;;;;;;;;;;;22.11;47.73;98527.06;5096577;28;20013;-55
2022/06/12 07:47:24;;;;;;;;;;;;;;;22.23;46.54;98522.09;5095419;28;20010;-53
2022/06/12 07:50:12;;;;;;;;;;;;;;;22.30;47.88;98528.91;5095731;28;20622;-57
2022/06/12 07:53:01;;;;;;;;;;;;;;;22.39;44.60;98527.47;5097337;28;20512;-56
2022/06/12 07:55:50;;;;;;;;;;;;;;;22.43;45.97;98522.78;5096679;28;20371;-57
2022/06/12 07:58:41;;;;;;;;;;;;;;;22.52;45.73;98525.25;5090939;28;20359;-56
2022/06/12 08:01:29;;;;;;;;;;;;;;;22.56;46.26;98519.75;5095162;28;19923;-57
2022/06/12 08:04:20;;;;;;;;;;;;;;;22.55;45.89;98526.47;5094084;28;19924;-57
2022/06/12 08:07:08;;;;;;;;;;;;;;;22.62;45.04;98523.78;5087943;28;20398;-58
2022/06/12 08:09:57;;;;;;;;;;;;;;;22.72;44.54;98520.34;5098658;28;20395;-54
2022/06/12 08:12:46;;;;;;;;;;;;;;;22.82;43.48;98522.47;5089606;28;19919;-56
2022/06/12 08:15:36;;;;;;;;;;;;;;;22.86;43.34;98517.78;5096837;28;19969;-55
2022/06/12 08:18:25;;;;;;;;;;;;;;;22.79;42.91;98512.13;5093005;28;19928;-55
2022/06/12 08:21:19;;;;;;;;;;;;;;;22.84;45.39;98514.56;5096977;28;19924;-53
2022/06/12 08:24:07;;;;;;;;;;;;;;;22.88;45.93;98514.63;5091951;28;19923;-56
2022/06/12 08:26:56;;;;;;;;;;;;;;;23.02;45.49;98511.25;5097078;28;19955;-54
2022/06/12 08:29:44;;;;;;;;;;;;;;;22.94;46.16;98513.13;5099321;28;20275;-56
2022/06/12 08:32:34;;;;;;;;;;;;;;;22.93;46.49;98512.34;5096871;28;20383;-54
2022/06/12 08:35:25;;;;;;;;;;;;;;;23.10;45.43;98502.59;5099683;28;20002;-51
2022/06/12 08:38:13;;;;;;;;;;;;;;;23.23;43.76;98509.50;5087091;28;19924;-55
2022/06/12 08:41:03;;;;;;;;;;;;;;;23.29;43.74;98500.84;5092294;28;19988;-56
2022/06/12 08:44:00;;;;;;;;;;;;;;;23.30;43.13;98499.66;5090939;28;19938;-55
2022/06/12 08:46:54;;;;;;;;;;;;;;;23.44;42.80;98492.25;5083567;28;20019;-55
2022/06/12 08:49:44;;;;;;;;;;;;;;;23.56;41.24;98490.38;5099201;28;19924;-55
2022/06/12 08:52:34;;;;;;;;;;;;;;;23.63;41.47;98487.69;5096616;28;19930;-54
2022/06/12 08:55:24;;;;;;;;;;;;;;;23.48;43.78;98490.28;5099856;28;19920;-52
2022/06/12 08:58:15;;;;;;;;;;;;;;;23.49;44.13;98488.34;5100170;28;20226;-54
2022/06/12 09:01:03;;;;;;;;;;;;;;;23.35;44.45;98483.47;5099025;28;19923;-55
2022/06/12 09:03:52;;;;;;;;;;;;;;;23.46;43.35;98483.56;5084914;28;19935;-56
2022/06/12 09:09:58;;;;;;;;;;;;;;;23.58;43.29;98483.25;5091548;28;19924;-56
2022/06/12 09:12:48;;;;;;;;;;;;;;;23.63;41.24;98476.59;5091985;28;19931;-53
2022/06/12 09:15:38;;;;;;;;;;;;;;;23.88;39.00;98466.47;5091571;28;19932;-57
2022/06/12 09:18:31;;;;;;;;;;;;;;;23.82;39.76;98468.03;5089921;28;19923;-57
2022/06/12 09:21:22;;;;;;;;;;;;;;;24.30;37.08;98470.69;5081328;28;20414;-55
2022/06/12 09:24:15;;;;;;;;;;;;;;;23.86;37.96;98468.81;5095300;28;20256;-55
2022/06/12 09:27:30;;;;;;;;;;;;;;;23.77;37.99;98471.94;5091155;28;19923;-55
2022/06/12 09:30:19;;;;;;;;;;;;;;;23.93;37.63;98457.00;5086235;28;19965;-55
2022/06/12 09:33:10;;;;;;;;;;;;;;;23.98;37.46;98462.97;5097924;28;19928;-57
2022/06/12 09:36:02;;;;;;;;;;;;;;;24.04;38.42;98455.06;5101768;28;19972;-58
2022/06/12 09:38:59;;;;;;;;;;;;;;;24.60;34.82;98444.63;5093794;28;19923;-54
2022/06/12 09:45:03;;;;;;;;;;;;;;;24.47;39.53;98455.31;5058166;28;19925;-55
2022/06/12 09:47:55;;;;;;;;;;;;;;;24.50;37.37;98454.53;5062632;28;19925;-55
2022/06/12 09:50:45;;;;;;;;;;;;;;;24.79;35.42;98442.34;5060388;28;19925;-55
2022/06/12 09:53:39;;;;;;;;;;;;;;;24.63;38.80;98449.44;5050099;28;19936;-56
2022/06/12 09:56:32;;;;;;;;;;;;;;;24.50;39.49;98441.47;5047314;28;20336;-57
2022/06/12 09:59:29;;;;;;;;;;;;;;;24.56;38.19;98455.75;5059182;28;19928;-55
2022/06/12 10:02:20;;;;;;;;;;;;;;;24.39;38.86;98451.69;5078847;28;20003;-55
2022/06/12 10:05:10;;;;;;;;;;;;;;;24.36;38.55;98440.59;5089665;28;19924;-57
2022/06/12 10:07:59;;;;;;;;;;;;;;;24.48;38.75;98438.25;5077735;28;19920;-55
2022/06/12 10:10:50;;;;;;;;;;;;;;;24.55;37.72;98432.75;5081580;28;19926;-55
2022/06/12 10:13:39;;;;;;;;;;;;;;;24.56;38.64;98427.97;5079685;28;19927;-56
2022/06/12 10:16:31;;;;;;;;;;;;;;;24.59;38.62;98426.38;5077024;28;19967;-54
2022/06/12 10:20:06;;;;;;;;;;;;;;;24.38;38.21;98433.44;5080168;28;19924;-55
2022/06/12 10:22:55;;;;;;;;;;;;;;;24.04;39.34;98435.66;5075375;28;20057;-53
2022/06/12 10:25:45;;;;;;;;;;;;;;;23.91;40.81;98423.25;5077427;28;20418;-56
2022/06/12 10:28:35;;;;;;;;;;;;;;;23.90;40.67;98410.59;5078984;28;20109;-56
2022/06/12 10:31:23;;;;;;;;;;;;;;;24.06;40.38;98419.38;5075614;28;20277;-54
2022/06/12 10:34:16;;;;;;;;;;;;;;;23.91;40.93;98407.41;5079885;28;20360;-57
2022/06/12 10:37:28;;;;;;;;;;;;;;;24.02;38.96;98405.50;5076863;28;20470;-55
2022/06/12 10:40:18;;;;;;;;;;;;;;;24.24;39.04;98403.63;5076139;28;19924;-56
2022/06/12 10:43:08;;;;;;;;;;;;;;;24.15;40.50;98416.28;5077388;28;20270;-55
2022/06/12 10:45:58;;;;;;;;;;;;;;;24.04;41.54;98405.13;5096293;28;19950;-56
2022/06/12 10:48:56;;;;;;;;;;;;;;;24.61;37.87;98402.59;5101837;28;20448;-57
2022/06/12 10:51:46;;;;;;;;;;;;;;;24.64;37.44;98389.91;5092226;28;19920;-56
2022/06/12 10:55:00;;;;;;;;;;;;;;;24.97;36.50;98381.22;5091282;28;19924;-57
2022/06/12 10:57:51;;;;;;;;;;;;;;;24.30;39.57;98381.84;5087715;28;19932;-55
2022/06/12 11:01:05;;;;;;;;;;;;;;;24.35;38.82;98381.50;5096652;28;19977;-57
2022/06/12 11:03:57;;;;;;;;;;;;;;;24.45;39.02;98389.06;5094624;28;19924;-54
2022/06/12 11:06:48;;;;;;;;;;;;;;;24.41;40.02;98388.25;5099226;28;19931;-55
2022/06/12 11:10:04;;;;;;;;;;;;;;;24.48;38.79;98387.47;5088401;28;19927;-54
2022/06/12 11:12:56;;;;;;;;;;;;;;;24.54;38.55;98377.56;5084872;28;19924;-51
2022/06/12 11:15:50;;;;;;;;;;;;;;;24.27;38.91;98377.06;5090922;28;20420;-57
2022/06/12 11:18:43;;;;;;;;;;;;;;;24.61;37.26;98377.59;5084790;28;20065;-56
2022/06/12 11:21:34;;;;;;;;;;;;;;;24.52;38.42;98380.75;5086409;28;19930;-54
2022/06/12 11:24:48;;;;;;;;;;;;;;;24.83;36.45;98373.66;5084960;28;19934;-53
2022/06/12 11:27:41;;;;;;;;;;;;;;;25.12;35.46;98370.13;5094772;28;20265;-56
2022/06/12 11:30:36;;;;;;;;;;;;;;;25.28;34.85;98367.75;5093909;28;20376;-57
2022/06/12 11:33:38;;;;;;;;;;;;;;;25.41;35.64;98359.78;5099449;28;20501;-53
2022/06/12 11:36:28;;;;;;;;;;;;;;;24.82;38.07;98362.94;5095756;28;20338;-55
2022/06/12 11:39:21;;;;;;;;;;;;;;;24.48;39.15;98359.69;5100435;28;19920;-57
2022/06/12 11:42:20;;;;;;;;;;;;;;;24.51;39.63;98348.59;5097244;28;19920;-56
2022/06/12 11:45:21;;;;;;;;;;;;;;;24.44;39.80;98348.56;5098049;28;19981;-57
2022/06/12 11:48:14;;;;;;;;;;;;;;;24.47;39.77;98338.66;5099536;28;19926;-56
2022/06/12 11:51:06;;;;;;;;;;;;;;;24.96;37.26;98337.13;5100369;28;19978;-55
2022/06/12 11:54:11;;;;;;;;;;;;;;;24.55;39.50;98335.53;5101145;28;20060;-53
2022/06/12 11:57:02;;;;;;;;;;;;;;;24.78;39.31;98340.72;5094688;28;19930;-55
2022/06/12 12:00:00;;;;;;;;;;;;;;;24.45;39.12;98341.03;5102131;28;20257;-61
2022/06/12 12:03:06;;;;;;;;;;;;;;;24.77;36.41;98339.13;5101319;28;19930;-56
2022/06/12 12:06:05;;;;;;;;;;;;;;;24.68;36.29;98326.81;5088821;28;19920;-54
2022/06/12 12:09:03;;;;;;;;;;;;;;;24.75;37.74;98326.81;5083020;28;19976;-61
2022/06/12 12:15:09;;;;;;;;;;;;;;;24.36;38.66;98316.44;5089572;28;20400;-57
2022/06/12 12:17:57;;;;;;;;;;;;;;;24.32;39.47;98321.13;5093533;28;19924;-54
2022/06/12 12:24:05;;;;;;;;;;;;;;;24.14;40.71;98317.53;5094391;28;19931;-56
2022/06/12 12:27:19;;;;;;;;;;;;;;;24.77;39.11;98316.91;5094677;28;19927;-56
2022/06/12 12:30:14;;;;;;;;;;;;;;;24.55;39.58;98310.53;5086353;28;19931;-55
2022/06/12 12:33:03;;;;;;;;;;;;;;;24.07;41.11;98307.19;5105552;28;20007;-58
2022/06/12 12:42:38;;;;;;;;;;;;;;;24.39;38.35;98304.53;5097778;28;19927;-56
2022/06/12 12:45:32;;;;;;;;;;;;;;;24.20;40.60;98291.75;5090529;28;19931;-56
2022/06/12 12:48:38;;;;;;;;;;;;;;;24.38;40.00;98300.16;5092551;28;20368;-56
2022/06/12 12:51:29;;;;;;;;;;;;;;;24.62;37.99;98289.50;5086445;28;20272;-53
2022/06/12 12:54:19;;;;;;;;;;;;;;;25.05;36.41;98288.31;5086825;28;19920;-56
2022/06/12 12:57:08;;;;;;;;;;;;;;;24.63;39.56;98283.53;5075563;28;20030;-54
2022/06/12 12:59:57;;;;;;;;;;;;;;;24.95;38.40;98277.19;5093327;28;20383;-56
2022/06/12 13:02:47;;;;;;;;;;;;;;;24.88;38.35;98280.78;5087125;28;19919;-55
2022/06/12 13:06:01;;;;;;;;;;;;;;;24.07;40.98;98284.97;5098269;28;19924;-55
2022/06/12 13:09:11;;;;;;;;;;;;;;;24.14;40.46;98275.91;5090821;28;20256;-53
2022/06/12 13:12:12;;;;;;;;;;;;;;;24.26;39.40;98267.19;5091695;28;19997;-56
2022/06/12 13:15:16;;;;;;;;;;;;;;;24.18;40.83;98262.78;5097396;28;20142;-56
2022/06/12 13:21:21;;;;;;;;;;;;;;;24.46;38.73;98256.53;5098281;28;20141;-56
2022/06/12 13:24:21;;;;;;;;;;;;;;;24.66;39.13;98254.16;5094043;28;20243;-55
2022/06/12 13:27:20;;;;;;;;;;;;;;;25.12;36.70;98250.59;5092810;28;19919;-56
2022/06/12 13:30:15;;;;;;;;;;;;;;;24.56;39.82;98245.44;5089298;28;19920;-57
2022/06/12 13:33:07;;;;;;;;;;;;;;;24.46;39.60;98240.69;5099468;28;19931;-55
2022/06/12 13:35:56;;;;;;;;;;;;;;;24.79;36.58;98233.91;5087710;28;19959;-55
2022/06/12 13:38:47;;;;;;;;;;;;;;;25.45;34.36;98232.63;5090639;28;20378;-54
2022/06/12 13:41:39;;;;;;;;;;;;;;;25.21;36.55;98231.50;5092624;28;19920;-54
2022/06/12 13:47:43;;;;;;;;;;;;;;;25.58;36.40;98215.09;5091559;28;20465;-56
2022/06/12 13:50:56;;;;;;;;;;;;;;;24.72;38.25;98224.81;5101116;28;19931;-57
2022/06/12 13:53:45;;;;;;;;;;;;;;;25.44;35.03;98211.56;5103110;28;19963;-54
2022/06/12 13:56:33;;;;;;;;;;;;;;;26.43;33.06;98203.94;5101238;28;20364;-55
2022/06/12 13:59:23;;;;;;;;;;;;;;;26.21;34.72;98203.25;5101966;28;20022;-57
2022/06/12 14:02:18;;;;;;;;;;;;;;;25.67;35.00;98199.94;5101953;28;19966;-55
2022/06/12 14:05:17;;;;;;;;;;;;;;;24.89;37.88;98210.09;5094003;28;19923;-56
2022/06/12 14:08:06;;;;;;;;;;;;;;;24.91;37.78;98204.91;5100572;28;19924;-52
2022/06/12 14:10:55;;;;;;;;;;;;;;;24.90;36.17;98200.56;5092257;28;20018;-57
2022/06/12 14:13:44;;;;;;;;;;;;;;;24.55;38.96;98198.59;5091612;28;19930;-53
2022/06/12 14:16:33;;;;;;;;;;;;;;;24.74;38.40;98197.41;5099865;28;19946;-57
2022/06/12 14:19:27;;;;;;;;;;;;;;;24.80;38.39;98204.16;5096383;28;20473;-55
2022/06/12 14:22:43;;;;;;;;;;;;;;;24.35;39.28;98195.44;5082714;28;19920;-56
2022/06/12 14:25:32;;;;;;;;;;;;;;;24.39;39.33;98196.22;5091922;28;20253;-57
2022/06/12 14:35:03;;;;;;;;;;;;;;;25.04;38.24;98183.88;5083588;28;19924;-54
2022/06/12 14:37:54;;;;;;;;;;;;;;;24.69;38.68;98186.69;5084611;28;19935;-56
2022/06/12 14:40:43;;;;;;;;;;;;;;;24.92;36.61;98181.50;5083917;28;20336;-56
2022/06/12 14:43:35;;;;;;;;;;;;;;;25.15;35.76;98180.31;5088223;28;19919;-57
2022/06/12 14:46:53;;;;;;;;;;;;;;;25.11;37.11;98171.16;5094247;28;19935;-57
2022/06/12 14:49:41;;;;;;;;;;;;;;;25.93;34.37;98168.81;5092264;28;19923;-55
2022/06/12 14:52:31;;;;;;;;;;;;;;;25.39;32.68;98165.50;5094547;28;19919;-54
2022/06/12 14:55:20;;;;;;;;;;;;;;;24.92;37.45;98173.16;5096812;28;20357;-57
2022/06/12 14:58:10;;;;;;;;;;;;;;;25.06;33.13;98162.03;5095710;28;20019;-54
2022/06/12 15:01:00;;;;;;;;;;;;;;;24.49;39.27;98156.53;5101902;28;19986;-56
2022/06/12 15:10:15;;;;;;;;;;;;;;;24.64;33.88;98156.53;5091354;28;20043;-53
2022/06/12 15:13:03;;;;;;;;;;;;;;;24.42;38.19;98156.56;5100927;28;19924;-56
2022/06/12 15:15:55;;;;;;;;;;;;;;;24.51;37.10;98143.06;5091963;28;20016;-52
2022/06/12 15:18:44;;;;;;;;;;;;;;;24.28;39.21;98145.41;5091027;28;20283;-57
2022/06/12 15:21:34;;;;;;;;;;;;;;;24.38;38.94;98141.88;5095191;28;20417;-56
2022/06/12 15:24:23;;;;;;;;;;;;;;;24.56;37.22;98139.91;5094394;28;20569;-53
2022/06/12 15:30:19;;;;;;;;;;;;;;;24.88;36.57;98130.72;5093062;28;19931;-56
2022/06/12 15:33:08;;;;;;;;;;;;;;;24.83;36.65;98128.34;5073513;28;19928;-56
2022/06/12 15:35:57;;;;;;;;;;;;;;;25.17;34.49;98113.94;5100290;28;19953;-54
2022/06/12 15:38:46;;;;;;;;;;;;;;;24.88;35.38;98111.25;5086155;28;19939;-57
2022/06/12 15:41:36;;;;;;;;;;;;;;;24.84;36.54;98107.69;5093096;28;20387;-56
2022/06/12 15:44:25;;;;;;;;;;;;;;;24.46;37.79;98115.69;5092315;28;19928;-57
2022/06/12 15:47:14;;;;;;;;;;;;;;;24.65;35.90;98113.69;5081046;28;20329;-57
2022/06/12 15:50:03;;;;;;;;;;;;;;;24.37;37.94;98115.31;5081323;28;19920;-56
2022/06/12 15:52:52;;;;;;;;;;;;;;;24.86;36.35;98115.63;5071811;28;19927;-56
2022/06/12 15:55:40;;;;;;;;;;;;;;;24.81;34.12;98114.03;5089111;28;19920;-56
2022/06/12 15:58:30;;;;;;;;;;;;;;;24.77;37.17;98110.50;5092109;28;19931;-56
2022/06/12 16:01:21;;;;;;;;;;;;;;;24.60;35.75;98109.31;5098350;28;20368;-58
2022/06/12 16:04:09;;;;;;;;;;;;;;;24.84;33.99;98093.78;5099516;28;19924;-54
2022/06/12 16:06:57;;;;;;;;;;;;;;;24.53;36.40;98099.00;5096158;28;19924;-55
2022/06/12 16:09:47;;;;;;;;;;;;;;;24.62;36.57;98087.50;5096770;28;19939;-57
2022/06/12 16:12:36;;;;;;;;;;;;;;;24.31;37.78;98094.66;5094912;28;19929;-55
2022/06/12 16:15:25;;;;;;;;;;;;;;;24.31;37.61;98089.91;5090693;28;19923;-56
2022/06/12 16:18:16;;;;;;;;;;;;;;;24.49;37.00;98092.66;5093983;28;19938;-55
2022/06/12 16:21:05;;;;;;;;;;;;;;;24.37;37.57;98084.75;5087089;28;19947;-55